createdAt,value
2018-12-20T00:00:20.374Z,92.60
2018-12-20T00:02:48.285Z,92.50
2018-12-20T00:05:16.178Z,92.50
2018-12-20T00:07:44.061Z,92.30
2018-12-20T00:10:12.076Z,92.30
2018-12-20T00:12:40.078Z,92.40
2018-12-20T00:15:08.289Z,92.10
2018-12-20T00:17:41.986Z,92.00
2018-12-20T00:20:10.055Z,92.50
2018-12-20T00:22:38.217Z,92.30
2018-12-20T00:25:07.447Z,92.30
2018-12-20T00:27:35.583Z,92.40
2018-12-20T00:30:04.914Z,92.40
2018-12-20T00:32:32.825Z,92.70
2018-12-20T00:35:00.748Z,92.90
2018-12-20T00:37:28.571Z,92.50
2018-12-20T00:39:56.500Z,92.60
2018-12-20T00:42:24.292Z,92.90
2018-12-20T00:44:52.119Z,93.10
2018-12-20T00:47:20.005Z,93.40
2018-12-20T00:49:47.919Z,93.40
2018-12-20T00:52:15.782Z,93.90
2018-12-20T00:54:43.662Z,93.60
2018-12-20T00:57:11.527Z,93.80
2018-12-20T00:59:39.352Z,93.60
2018-12-20T01:02:08.083Z,93.70
2018-12-20T01:04:35.986Z,93.80
2018-12-20T01:07:05.207Z,94.00
2018-12-20T01:09:35.867Z,94.10
2018-12-20T01:12:03.795Z,94.30
2018-12-20T01:14:31.737Z,94.40
2018-12-20T01:16:59.708Z,94.60
2018-12-20T01:19:27.562Z,94.70
2018-12-20T01:21:55.411Z,94.60
2018-12-20T01:24:23.280Z,94.60
2018-12-20T01:26:51.302Z,94.70
2018-12-20T01:29:19.351Z,94.80
2018-12-20T01:31:47.287Z,94.80
2018-12-20T01:34:15.315Z,94.80
2018-12-20T01:36:43.760Z,95.00
2018-12-20T01:39:11.772Z,95.10
2018-12-20T01:41:39.647Z,95.10
2018-12-20T01:44:08.041Z,95.20
2018-12-20T01:46:36.075Z,95.20
2018-12-20T01:49:04.045Z,95.20
2018-12-20T01:51:31.867Z,95.20
2018-12-20T01:53:59.639Z,95.10
2018-12-20T01:56:27.569Z,95.10
2018-12-20T01:58:55.506Z,95.00
2018-12-20T02:01:23.443Z,95.20
2018-12-20T02:03:51.281Z,95.00
2018-12-20T02:06:19.276Z,95.10
2018-12-20T02:08:47.219Z,95.20
2018-12-20T02:11:15.066Z,95.20
2018-12-20T02:13:42.865Z,95.30
2018-12-20T02:16:10.620Z,95.00
2018-12-20T02:18:38.612Z,94.90
2018-12-20T02:21:06.566Z,94.10
2018-12-20T02:23:34.465Z,93.50
2018-12-20T02:26:02.547Z,93.50
2018-12-20T02:28:30.392Z,93.50
2018-12-20T02:30:58.325Z,93.50
2018-12-20T02:33:26.107Z,93.80
2018-12-20T02:35:53.983Z,93.80
2018-12-20T02:38:21.860Z,93.60
2018-12-20T02:40:49.914Z,93.20
2018-12-20T02:43:18.087Z,92.20
2018-12-20T02:45:46.071Z,92.40
2018-12-20T02:48:14.047Z,92.60
2018-12-20T02:50:41.936Z,92.20
2018-12-20T02:53:09.749Z,91.30
2018-12-20T02:55:37.647Z,91.20
2018-12-20T02:58:05.480Z,91.40
2018-12-20T03:00:33.483Z,92.30
2018-12-20T03:03:01.311Z,92.50
2018-12-20T03:05:29.113Z,92.60
2018-12-20T03:07:57.108Z,92.60
2018-12-20T03:10:25.549Z,93.00
2018-12-20T03:12:53.589Z,93.30
2018-12-20T03:15:21.602Z,93.70
2018-12-20T03:17:49.846Z,93.40
2018-12-20T03:20:17.860Z,93.60
2018-12-20T03:22:45.668Z,93.80
2018-12-20T03:25:13.465Z,94.00
2018-12-20T03:27:41.299Z,94.10
2018-12-20T03:30:09.230Z,94.00
2018-12-20T03:32:37.180Z,93.70
2018-12-20T03:35:05.109Z,93.70
2018-12-20T03:37:32.918Z,93.60
2018-12-20T03:40:00.765Z,92.80
2018-12-20T03:42:28.684Z,93.10
2018-12-20T03:44:56.685Z,93.50
2018-12-20T03:47:24.813Z,93.70
2018-12-20T03:49:52.899Z,94.00
2018-12-20T03:52:21.199Z,93.40
2018-12-20T03:54:48.989Z,93.40
2018-12-20T03:57:16.926Z,93.20
2018-12-20T03:59:45.130Z,93.40
2018-12-20T04:02:13.146Z,93.40
2018-12-20T04:04:40.961Z,93.40
2018-12-20T04:07:08.850Z,93.10
2018-12-20T04:09:36.844Z,92.80
2018-12-20T04:12:04.974Z,93.00
2018-12-20T04:14:32.960Z,93.30
2018-12-20T04:17:00.928Z,93.10
2018-12-20T04:19:29.246Z,93.20
2018-12-20T04:21:57.153Z,93.30
2018-12-20T04:24:28.066Z,93.50
2018-12-20T04:26:56.087Z,93.60
2018-12-20T04:29:23.995Z,93.40
2018-12-20T04:31:51.956Z,93.30
2018-12-20T04:34:19.941Z,93.30
2018-12-20T04:36:47.835Z,93.10
2018-12-20T04:39:15.707Z,93.10
2018-12-20T04:41:43.512Z,93.40
2018-12-20T04:44:11.516Z,93.80
2018-12-20T04:46:39.417Z,93.90
2018-12-20T04:49:07.204Z,94.40
2018-12-20T04:51:35.331Z,95.10
2018-12-20T04:54:03.364Z,94.70
2018-12-20T04:56:31.311Z,94.80
2018-12-20T04:58:59.247Z,95.00
2018-12-20T05:01:27.469Z,95.40
2018-12-20T05:03:55.476Z,95.70
2018-12-20T05:06:23.964Z,95.80
2018-12-20T05:08:51.934Z,95.60
2018-12-20T05:11:19.824Z,95.50
2018-12-20T05:13:47.667Z,95.40
2018-12-20T05:16:15.522Z,95.20
2018-12-20T05:18:43.599Z,95.20
2018-12-20T05:21:11.489Z,95.20
2018-12-20T05:23:39.557Z,95.20
2018-12-20T05:26:07.578Z,95.50
2018-12-20T05:28:35.638Z,95.20
2018-12-20T05:31:03.869Z,95.20
2018-12-20T05:33:32.072Z,95.10
2018-12-20T05:35:59.982Z,95.20
2018-12-20T05:38:27.943Z,95.10
2018-12-20T05:40:56.121Z,95.00
2018-12-20T05:43:23.972Z,95.10
2018-12-20T05:45:51.944Z,95.00
2018-12-20T05:48:19.774Z,94.90
2018-12-20T05:50:47.599Z,94.60
2018-12-20T05:53:15.474Z,94.30
2018-12-20T05:55:43.332Z,94.10
2018-12-20T05:58:11.135Z,94.30
2018-12-20T06:00:39.472Z,94.30
2018-12-20T06:03:07.498Z,94.50
2018-12-20T06:05:35.291Z,94.70
2018-12-20T06:08:03.047Z,94.80
2018-12-20T06:10:30.819Z,94.70
2018-12-20T06:12:58.688Z,94.70
2018-12-20T06:15:26.608Z,94.40
2018-12-20T06:17:54.608Z,94.30
2018-12-20T06:20:22.512Z,94.00
2018-12-20T06:22:50.279Z,93.50
2018-12-20T06:25:18.194Z,93.60
2018-12-20T06:27:46.011Z,93.10
2018-12-20T06:30:13.899Z,92.90
2018-12-20T06:32:41.652Z,92.40
2018-12-20T06:35:09.454Z,92.80
2018-12-20T06:37:37.224Z,93.10
2018-12-20T06:40:05.271Z,93.40
2018-12-20T06:42:33.096Z,93.50
2018-12-20T06:45:00.858Z,93.70
2018-12-20T06:47:28.630Z,94.00
2018-12-20T06:49:56.430Z,94.10
2018-12-20T06:52:24.599Z,94.20
2018-12-20T06:54:52.455Z,94.30
2018-12-20T06:57:20.267Z,94.00
2018-12-20T06:59:48.119Z,94.30
2018-12-20T07:02:16.179Z,94.30
2018-12-20T07:04:44.010Z,94.30
2018-12-20T07:07:11.881Z,93.90
2018-12-20T07:09:39.655Z,93.90
2018-12-20T07:12:08.537Z,94.00
2018-12-20T07:14:36.446Z,94.10
2018-12-20T07:17:04.267Z,93.70
2018-12-20T07:19:32.164Z,93.20
2018-12-20T07:21:59.968Z,92.80
2018-12-20T07:24:27.767Z,93.00
2018-12-20T07:26:55.585Z,92.70
2018-12-20T07:29:23.511Z,92.80
2018-12-20T07:31:51.625Z,92.60
2018-12-20T07:34:19.591Z,92.70
2018-12-20T07:36:47.547Z,92.60
2018-12-20T07:39:15.343Z,91.90
2018-12-20T07:41:43.147Z,92.20
2018-12-20T07:44:11.021Z,92.50
2018-12-20T07:46:38.852Z,92.70
2018-12-20T07:49:06.777Z,92.80
2018-12-20T07:51:35.143Z,93.20
2018-12-20T09:17:44.239Z,91.20
2018-12-20T09:20:12.111Z,90.10
2018-12-20T09:22:39.843Z,87.70
2018-12-20T09:25:07.698Z,87.20
2018-12-20T09:27:35.532Z,87.20
2018-12-20T09:30:03.587Z,86.40
2018-12-20T09:32:31.395Z,86.50
2018-12-20T09:34:59.612Z,87.10
2018-12-20T09:37:27.421Z,87.00
2018-12-20T09:39:55.347Z,87.20
2018-12-20T09:42:23.331Z,87.70
2018-12-20T09:44:51.277Z,88.50
2018-12-20T09:47:24.695Z,88.70
2018-12-20T09:49:52.832Z,88.80
2018-12-20T09:52:20.919Z,89.30
2018-12-20T09:54:48.684Z,88.20
2018-12-20T09:57:16.722Z,87.30
2018-12-20T09:59:44.607Z,86.60
2018-12-20T10:02:12.352Z,86.60
2018-12-20T10:04:40.101Z,84.90
2018-12-20T10:07:08.147Z,84.00
2018-12-20T10:09:35.909Z,83.10
2018-12-20T10:15:02.731Z,82.70
2018-12-20T10:17:30.534Z,82.60
2018-12-20T10:19:58.282Z,81.70
2018-12-20T10:22:26.247Z,80.00
2018-12-20T10:24:54.107Z,82.00
2018-12-20T10:27:22.026Z,81.80
2018-12-20T10:29:49.771Z,81.40
2018-12-20T10:32:17.525Z,78.10
2018-12-20T10:34:45.303Z,76.10
2018-12-20T10:37:13.123Z,76.20
2018-12-20T10:39:40.870Z,71.50
2018-12-20T10:42:08.635Z,69.60
2018-12-20T10:44:36.398Z,63.10
2018-12-20T10:47:09.764Z,62.20
2018-12-20T10:49:37.582Z,63.20
2018-12-20T10:52:05.492Z,62.10
2018-12-20T10:54:33.307Z,60.40
2018-12-20T10:57:01.559Z,59.10
2018-12-20T10:59:29.319Z,60.50
2018-12-20T11:02:02.686Z,61.90
2018-12-20T11:04:34.951Z,64.40
2018-12-20T11:13:36.013Z,65.20
2018-12-20T11:16:04.779Z,65.80
2018-12-20T11:18:32.526Z,67.90
2018-12-20T11:21:00.258Z,68.90
2018-12-20T11:23:28.200Z,69.80
2018-12-20T11:25:56.151Z,71.10
2018-12-20T11:28:24.057Z,72.60
2018-12-20T11:30:51.830Z,72.30
2018-12-20T11:33:19.668Z,72.90
2018-12-20T11:35:47.459Z,74.60
2018-12-20T11:38:15.243Z,75.10
2018-12-20T11:40:43.018Z,75.40
2018-12-20T11:43:10.835Z,75.60
2018-12-20T11:45:38.583Z,76.00
2018-12-20T11:48:06.364Z,76.20
2018-12-20T11:50:34.180Z,76.00
2018-12-20T11:53:01.943Z,76.10
2018-12-20T11:55:29.732Z,75.80
2018-12-20T11:57:57.531Z,76.00
2018-12-20T12:00:25.438Z,75.30
2018-12-20T12:02:53.339Z,73.50
2018-12-20T12:05:21.144Z,72.60
2018-12-20T12:07:49.596Z,69.80
2018-12-20T12:10:17.585Z,68.20
2018-12-20T12:12:45.338Z,69.60
2018-12-20T12:15:13.347Z,69.10
2018-12-20T12:17:41.074Z,67.70
2018-12-20T12:20:08.875Z,67.90
2018-12-20T12:22:36.647Z,69.20
2018-12-20T12:25:05.450Z,69.60
2018-12-20T12:27:33.240Z,70.00
2018-12-20T12:30:01.050Z,72.60
2018-12-20T12:32:28.819Z,73.80
2018-12-20T12:34:56.557Z,75.70
2018-12-20T12:37:24.309Z,77.40
2018-12-20T12:39:52.274Z,77.90
2018-12-20T12:42:20.116Z,78.30
2018-12-20T12:44:47.868Z,78.40
2018-12-20T12:47:17.805Z,78.60
2018-12-20T12:49:45.619Z,77.40
2018-12-20T12:52:13.517Z,76.90
2018-12-20T12:54:41.298Z,74.80
2018-12-20T12:57:09.071Z,74.00
2018-12-20T12:59:36.825Z,73.70
2018-12-20T13:02:04.738Z,73.20
2018-12-20T13:04:32.532Z,71.50
2018-12-20T13:07:00.272Z,71.40
2018-12-20T13:09:27.990Z,67.60
2018-12-20T13:11:55.794Z,68.20
2018-12-20T13:14:23.747Z,69.30
2018-12-20T13:16:51.455Z,69.90
2018-12-20T13:19:19.275Z,72.20
2018-12-20T13:21:46.998Z,72.80
2018-12-20T13:24:14.715Z,73.50
2018-12-20T13:26:42.531Z,74.30
2018-12-20T13:29:10.285Z,74.90
2018-12-20T13:31:38.067Z,75.40
2018-12-20T13:34:05.818Z,75.10
2018-12-20T13:36:33.595Z,74.20
2018-12-20T13:39:01.315Z,74.50
2018-12-20T13:41:29.079Z,74.70
2018-12-20T13:43:56.903Z,75.40
2018-12-20T13:46:24.714Z,75.80
2018-12-20T13:48:52.492Z,76.40
2018-12-20T13:51:20.470Z,76.40
2018-12-20T13:53:48.543Z,75.80
2018-12-20T13:56:16.386Z,75.60
2018-12-20T13:58:44.119Z,76.40
2018-12-20T14:01:12.093Z,77.10
2018-12-20T14:03:39.927Z,77.90
2018-12-20T14:06:08.551Z,77.70
2018-12-20T14:08:36.320Z,77.30
2018-12-20T14:11:05.776Z,76.10
2018-12-20T14:13:33.510Z,75.00
2018-12-20T14:16:01.264Z,74.80
2018-12-20T14:18:31.162Z,74.30
2018-12-20T14:20:58.776Z,74.00
2018-12-20T14:23:26.538Z,74.90
2018-12-20T14:25:54.328Z,74.50
2018-12-20T14:28:22.358Z,74.90
2018-12-20T14:30:50.143Z,75.30
2018-12-20T14:33:17.927Z,75.50
2018-12-20T14:35:45.703Z,77.20
2018-12-20T14:38:13.457Z,79.50
2018-12-20T14:40:41.239Z,80.40
2018-12-20T14:43:09.063Z,80.80
2018-12-20T14:45:37.034Z,81.10
2018-12-20T14:48:04.803Z,81.20
2018-12-20T14:50:32.554Z,81.50
2018-12-20T14:53:00.291Z,81.50
2018-12-20T14:55:28.059Z,81.50
2018-12-20T14:57:55.928Z,81.50
2018-12-20T15:00:24.047Z,81.70
2018-12-20T15:02:51.814Z,81.50
2018-12-20T15:05:20.202Z,80.60
2018-12-20T15:07:47.939Z,79.90
2018-12-20T15:10:15.674Z,79.50
2018-12-20T15:12:43.439Z,80.40
2018-12-20T15:15:11.146Z,80.50
2018-12-20T15:17:38.887Z,80.30
2018-12-20T15:20:08.197Z,80.30
2018-12-20T15:22:36.003Z,80.80
2018-12-20T15:25:04.075Z,80.90
2018-12-20T15:27:31.799Z,81.50
2018-12-20T15:29:59.672Z,81.90
2018-12-20T15:32:27.472Z,82.40
2018-12-20T15:34:55.348Z,83.40
2018-12-20T15:37:23.083Z,83.50
2018-12-20T15:39:50.821Z,83.60
2018-12-20T15:42:18.684Z,83.80
2018-12-20T15:44:46.428Z,84.20
2018-12-20T15:47:14.204Z,83.90
2018-12-20T15:49:42.331Z,84.00
2018-12-20T15:52:10.125Z,83.90
2018-12-20T15:54:37.939Z,84.00
2018-12-20T15:57:05.847Z,84.20
2018-12-20T15:59:34.543Z,84.70
2018-12-20T16:02:02.234Z,84.70
2018-12-20T16:04:29.968Z,84.50
2018-12-20T16:06:57.869Z,84.70
2018-12-20T16:09:25.859Z,84.80
2018-12-20T16:11:53.618Z,85.40
2018-12-20T16:14:21.403Z,85.70
2018-12-20T16:16:49.159Z,86.20
2018-12-20T16:19:17.001Z,86.60
2018-12-20T16:21:44.757Z,86.90
2018-12-20T16:24:12.607Z,87.00
2018-12-20T16:26:40.387Z,86.70
2018-12-20T16:29:08.153Z,86.60
2018-12-20T16:31:35.883Z,86.70
2018-12-20T16:34:04.191Z,86.70
2018-12-20T16:36:32.047Z,87.00
2018-12-20T16:38:59.851Z,86.90
2018-12-20T16:41:27.750Z,87.00
2018-12-20T16:43:55.653Z,86.30
2018-12-20T16:46:23.411Z,85.90
2018-12-20T16:48:53.475Z,86.10
2018-12-20T16:51:21.398Z,86.40
2018-12-20T16:53:49.147Z,85.70
2018-12-20T16:56:16.959Z,86.50
2018-12-20T16:58:44.739Z,87.10
2018-12-20T17:01:14.768Z,86.90
2018-12-20T17:03:42.532Z,87.40
2018-12-20T17:06:10.927Z,87.60
2018-12-20T17:08:38.731Z,87.30
2018-12-20T17:11:07.643Z,87.30
2018-12-20T17:13:35.875Z,87.50
2018-12-20T17:16:03.799Z,87.70
2018-12-20T17:18:31.607Z,87.70
2018-12-20T17:26:46.144Z,87.90
2018-12-20T17:29:13.891Z,88.00
2018-12-20T17:31:41.663Z,87.80
2018-12-20T17:34:09.446Z,87.00
2018-12-20T17:36:37.344Z,87.00
2018-12-20T17:39:07.199Z,87.40
2018-12-20T17:41:34.994Z,87.40
2018-12-20T17:44:03.421Z,87.60
2018-12-20T17:46:31.223Z,87.80
2018-12-20T17:48:59.083Z,88.20
2018-12-20T17:51:27.022Z,87.90
2018-12-20T17:53:56.583Z,87.80
2018-12-20T17:56:24.492Z,87.70
2018-12-20T17:58:52.275Z,87.50
2018-12-20T18:01:20.071Z,87.60
2018-12-20T18:03:47.845Z,87.80
2018-12-20T18:06:15.651Z,87.80
2018-12-20T18:08:43.707Z,87.90
2018-12-20T18:11:11.514Z,88.00
2018-12-20T18:13:39.286Z,87.60
2018-12-20T18:16:07.035Z,87.20
2018-12-20T18:18:34.849Z,87.60
2018-12-20T18:21:04.705Z,87.00
2018-12-20T18:23:32.545Z,87.00
2018-12-20T18:26:00.363Z,86.90
2018-12-20T18:28:28.235Z,87.40
2018-12-20T18:30:56.151Z,87.90
2018-12-20T18:33:23.876Z,88.30
2018-12-20T18:35:51.680Z,88.70
2018-12-20T18:38:19.539Z,88.90
2018-12-20T18:40:47.311Z,88.70
2018-12-20T18:43:15.140Z,88.80
2018-12-20T18:45:42.907Z,88.90
2018-12-20T18:48:10.996Z,88.90
2018-12-20T18:50:38.805Z,89.00
2018-12-20T18:53:06.586Z,88.90
2018-12-20T18:55:34.403Z,89.00
2018-12-20T18:58:02.251Z,88.90
2018-12-20T19:00:30.100Z,89.10
2018-12-20T19:02:57.919Z,89.20
2018-12-20T19:05:25.726Z,88.80
2018-12-20T19:07:53.536Z,89.00
2018-12-20T19:10:21.371Z,89.00
2018-12-20T19:12:49.150Z,89.30
2018-12-20T19:15:16.972Z,89.80
2018-12-20T19:17:44.707Z,90.00
2018-12-20T19:22:43.071Z,90.20
2018-12-20T19:22:56.225Z,90.20
2018-12-20T19:25:10.822Z,90.40
2018-12-20T19:27:38.623Z,90.10
2018-12-20T19:30:08.672Z,90.00
2018-12-20T19:32:36.451Z,90.10
2018-12-20T19:35:04.648Z,89.60
2018-12-20T19:37:32.403Z,89.50
2018-12-20T19:40:03.807Z,89.40
2018-12-20T19:42:31.524Z,89.40
2018-12-20T19:44:59.435Z,89.10
2018-12-20T19:47:27.300Z,89.00
2018-12-20T19:49:55.094Z,88.60
2018-12-20T19:52:22.879Z,88.00
2018-12-20T19:54:50.660Z,88.10
2018-12-20T19:57:18.704Z,88.40
2018-12-20T19:59:46.467Z,88.70
2018-12-20T20:02:14.304Z,88.80
2018-12-20T20:04:42.039Z,88.90
2018-12-20T20:07:09.899Z,88.70
2018-12-20T20:09:37.686Z,88.40
2018-12-20T20:12:05.510Z,88.60
2018-12-20T20:14:33.342Z,88.30
2018-12-20T20:17:01.139Z,88.10
2018-12-20T20:19:29.280Z,87.30
2018-12-20T20:21:57.132Z,86.20
2018-12-20T20:24:24.979Z,85.60
2018-12-20T20:26:53.089Z,85.90
2018-12-20T20:29:20.835Z,85.80
2018-12-20T20:31:48.644Z,86.10
2018-12-20T20:34:16.494Z,86.50
2018-12-20T20:36:44.225Z,85.40
2018-12-20T20:39:11.949Z,85.30
2018-12-20T20:41:39.722Z,86.10
2018-12-20T20:44:07.504Z,86.20
2018-12-20T20:46:35.327Z,86.60
2018-12-20T20:49:03.195Z,87.00
2018-12-20T20:51:30.977Z,87.40
2018-12-20T20:53:58.920Z,87.40
2018-12-20T20:56:27.879Z,87.40
2018-12-20T20:58:56.718Z,86.80
2018-12-20T21:01:24.535Z,87.00
2018-12-20T21:03:52.263Z,87.20
2018-12-20T21:06:19.978Z,87.40
2018-12-20T21:23:25.274Z,88.50
2018-12-20T21:25:53.088Z,88.10
2018-12-20T21:28:20.831Z,88.10
2018-12-20T21:30:48.695Z,88.10
2018-12-20T21:33:16.459Z,88.10
2018-12-20T21:35:44.191Z,88.30
2018-12-20T21:55:38.533Z,88.80
2018-12-20T22:01:13.444Z,89.20
2018-12-20T22:03:41.233Z,89.30
2018-12-20T22:06:09.601Z,89.00
2018-12-20T22:08:37.404Z,89.10
2018-12-20T22:11:05.268Z,88.90
2018-12-20T22:13:32.975Z,88.30
2018-12-20T22:16:00.849Z,88.30
2018-12-20T22:18:28.639Z,87.80
2018-12-20T22:20:56.408Z,87.40
2018-12-20T22:23:24.466Z,87.80
2018-12-20T22:25:52.471Z,87.40
2018-12-20T22:28:20.259Z,87.80
2018-12-20T22:30:48.058Z,87.20
2018-12-20T22:33:15.807Z,86.10
2018-12-20T22:35:43.671Z,86.90
2018-12-20T22:38:11.415Z,87.70
2018-12-20T22:40:39.213Z,87.70
2018-12-20T22:43:06.952Z,87.30
2018-12-20T22:45:34.899Z,87.50
2018-12-20T22:48:02.672Z,86.30
2018-12-20T22:50:30.574Z,85.70
2018-12-20T22:52:58.466Z,85.30
2018-12-20T22:55:26.218Z,85.40
2018-12-20T22:57:54.274Z,85.10
2018-12-20T23:00:22.183Z,85.00
2018-12-20T23:02:49.967Z,85.10
2018-12-20T23:05:17.763Z,84.70
2018-12-20T23:07:45.510Z,84.70
2018-12-20T23:10:13.388Z,85.20
2018-12-20T23:12:41.955Z,83.10
2018-12-20T23:15:09.840Z,83.50
2018-12-20T23:17:37.792Z,84.20
2018-12-20T23:20:06.819Z,84.40
2018-12-20T23:22:34.641Z,84.20
2018-12-20T23:25:02.544Z,83.70
2018-12-20T23:27:30.503Z,83.60
2018-12-20T23:29:58.477Z,82.70
2018-12-20T23:32:26.266Z,80.40
2018-12-20T23:34:54.002Z,81.40
2018-12-20T23:37:21.841Z,81.30
2018-12-20T23:39:49.590Z,80.50
2018-12-20T23:42:17.387Z,81.40
2018-12-20T23:44:45.179Z,81.60
2018-12-20T23:47:12.973Z,81.90
2018-12-20T23:49:40.753Z,81.50
2018-12-20T23:52:08.561Z,82.10
2018-12-20T23:54:37.081Z,82.10
2018-12-20T23:57:04.853Z,78.80
2018-12-20T23:59:32.630Z,79.10
